createdAt,value
2018-06-16T00:00:42.806Z,87.12
2018-06-16T00:01:42.898Z,86.88
2018-06-16T00:02:42.996Z,87.55
2018-06-16T00:03:43.094Z,87.74
2018-06-16T00:04:43.191Z,87.84
2018-06-16T00:05:43.286Z,87.94
2018-06-16T00:06:43.385Z,87.46
2018-06-16T00:07:43.483Z,88.42
2018-06-16T00:08:43.580Z,90.39
2018-06-16T00:09:43.678Z,90.00
2018-06-16T00:10:43.775Z,90.48
2018-06-16T00:11:43.867Z,91.34
2018-06-16T00:12:43.957Z,92.06
2018-06-16T00:13:44.055Z,92.63
2018-06-16T00:14:44.961Z,93.12
2018-06-16T00:15:44.318Z,93.21
2018-06-16T00:16:44.416Z,93.30
2018-06-16T00:17:44.501Z,92.25
2018-06-16T00:18:44.591Z,92.92
2018-06-16T00:19:44.687Z,92.83
2018-06-16T00:20:44.794Z,92.83
2018-06-16T00:21:44.889Z,92.68
2018-06-16T00:22:44.976Z,92.11
2018-06-16T00:23:45.064Z,91.92
2018-06-16T00:24:45.168Z,91.15
2018-06-16T00:25:45.343Z,91.63
2018-06-16T00:26:45.388Z,91.05
2018-06-16T00:27:45.479Z,91.05
2018-06-16T00:28:45.568Z,90.77
2018-06-16T00:29:45.685Z,90.86
2018-06-16T00:30:45.773Z,90.00
2018-06-16T00:31:45.859Z,90.39
2018-06-16T00:32:45.952Z,89.81
2018-06-16T00:33:46.044Z,89.81
2018-06-16T00:34:46.133Z,90.39
2018-06-16T00:35:46.286Z,89.90
2018-06-16T00:36:46.372Z,90.48
2018-06-16T00:37:46.472Z,90.48
2018-06-16T00:38:46.572Z,91.01
2018-06-16T00:39:46.653Z,90.77
2018-06-16T00:40:46.761Z,91.34
2018-06-16T00:41:46.865Z,90.58
2018-06-16T00:42:46.959Z,90.67
2018-06-16T00:43:47.053Z,90.58
2018-06-16T00:44:47.185Z,90.53
2018-06-16T00:45:47.300Z,91.49
2018-06-16T00:46:47.279Z,91.68
2018-06-16T00:47:47.399Z,91.87
2018-06-16T00:48:47.498Z,91.87
2018-06-16T00:49:47.589Z,91.30
2018-06-16T00:50:47.702Z,91.25
2018-06-16T00:51:47.793Z,91.20
2018-06-16T00:52:47.907Z,91.44
2018-06-16T00:53:47.988Z,90.86
2018-06-16T00:54:48.076Z,90.58
2018-06-16T00:55:48.163Z,90.77
2018-06-16T00:56:48.260Z,90.00
2018-06-16T00:57:48.357Z,89.90
2018-06-16T00:58:48.493Z,90.09
2018-06-16T00:59:48.596Z,89.81
2018-06-16T01:00:48.690Z,90.00
2018-06-16T01:01:48.784Z,90.09
2018-06-16T01:02:48.902Z,90.19
2018-06-16T01:03:49.005Z,89.23
2018-06-16T01:04:49.106Z,89.43
2018-06-16T01:05:49.197Z,89.43
2018-06-16T01:06:49.283Z,89.43
2018-06-16T01:07:49.376Z,89.23
2018-06-16T01:08:49.475Z,88.76
2018-06-16T01:09:49.562Z,89.14
2018-06-16T01:10:49.657Z,88.66
2018-06-16T01:11:49.775Z,88.85
2018-06-16T01:12:49.870Z,88.95
2018-06-16T01:13:49.964Z,89.33
2018-06-16T01:14:50.065Z,89.81
2018-06-16T01:15:50.155Z,89.86
2018-06-16T01:16:50.246Z,91.01
2018-06-16T01:17:50.330Z,90.72
2018-06-16T01:18:50.422Z,90.91
2018-06-16T01:19:50.520Z,90.82
2018-06-16T01:20:50.618Z,90.91
2018-06-16T01:21:50.713Z,90.58
2018-06-16T01:22:50.811Z,90.67
2018-06-16T01:23:50.909Z,89.90
2018-06-16T01:24:51.005Z,90.19
2018-06-16T01:25:51.088Z,89.72
2018-06-16T01:26:51.193Z,89.90
2018-06-16T01:27:51.275Z,90.00
2018-06-16T01:28:51.368Z,90.29
2018-06-16T01:29:51.463Z,89.33
2018-06-16T01:30:51.565Z,89.52
2018-06-16T01:31:51.670Z,89.62
2018-06-16T01:32:51.754Z,89.43
2018-06-16T01:33:51.852Z,89.04
2018-06-16T01:34:51.963Z,88.76
2018-06-16T01:35:52.057Z,88.85
2018-06-16T01:36:52.154Z,89.14
2018-06-16T01:37:52.245Z,88.85
2018-06-16T01:38:52.373Z,88.85
2018-06-16T01:39:52.476Z,88.56
2018-06-16T01:40:52.570Z,88.47
2018-06-16T01:41:52.675Z,88.85
2018-06-16T01:42:52.762Z,89.14
2018-06-16T01:43:52.852Z,89.90
2018-06-16T01:44:52.986Z,89.90
2018-06-16T01:45:53.085Z,89.81
2018-06-16T01:46:53.191Z,90.48
2018-06-16T01:47:53.291Z,90.09
2018-06-16T01:48:53.389Z,90.34
2018-06-16T01:49:53.489Z,90.29
2018-06-16T01:50:53.580Z,90.09
2018-06-16T01:51:53.673Z,89.95
2018-06-16T01:52:53.767Z,90.29
2018-06-16T01:53:53.860Z,90.29
2018-06-16T01:54:53.958Z,90.00
2018-06-16T01:55:54.051Z,90.00
2018-06-16T01:56:54.144Z,89.81
2018-06-16T01:57:54.239Z,89.81
2018-06-16T01:58:54.332Z,90.19
2018-06-16T01:59:54.427Z,89.33
2018-06-16T02:00:54.525Z,89.72
2018-06-16T02:01:54.624Z,89.23
2018-06-16T02:02:54.723Z,89.43
2018-06-16T02:03:54.824Z,90.24
2018-06-16T02:04:54.920Z,90.82
2018-06-16T02:05:55.015Z,91.20
2018-06-16T02:06:55.106Z,91.39
2018-06-16T02:07:55.200Z,91.30
2018-06-16T02:08:55.298Z,91.01
2018-06-16T02:09:55.424Z,90.53
2018-06-16T02:10:55.510Z,90.53
2018-06-16T02:11:55.626Z,91.63
2018-06-16T02:12:55.728Z,92.78
2018-06-16T02:13:55.832Z,93.35
2018-06-16T02:14:55.936Z,93.16
2018-06-16T02:15:56.033Z,92.97
2018-06-16T02:16:56.125Z,93.45
2018-06-16T02:17:56.222Z,93.74
2018-06-16T02:18:56.316Z,94.41
2018-06-16T02:19:56.420Z,94.50
2018-06-16T02:20:56.526Z,94.50
2018-06-16T02:21:56.619Z,95.17
2018-06-16T02:22:56.721Z,94.21
2018-06-16T02:23:56.818Z,94.41
2018-06-16T02:24:56.914Z,94.41
2018-06-16T02:25:57.025Z,94.02
2018-06-16T02:26:57.107Z,94.41
2018-06-16T02:27:57.205Z,94.02
2018-06-16T02:28:57.301Z,93.84
2018-06-16T02:29:57.399Z,93.35
2018-06-16T02:30:57.497Z,93.02
2018-06-16T02:31:57.595Z,92.63
2018-06-16T02:32:57.689Z,92.35
2018-06-16T02:33:57.793Z,92.06
2018-06-16T02:34:57.889Z,92.54
2018-06-16T02:35:57.983Z,91.97
2018-06-16T02:36:58.072Z,92.35
2018-06-16T02:37:58.166Z,92.25
2018-06-16T02:38:58.265Z,92.25
2018-06-16T02:39:58.360Z,92.06
2018-06-16T02:40:58.462Z,92.83
2018-06-16T02:41:58.554Z,92.30
2018-06-16T02:42:58.652Z,92.49
2018-06-16T02:43:58.751Z,93.26
2018-06-16T02:44:58.850Z,92.97
2018-06-16T02:45:58.951Z,93.45
2018-06-16T02:46:59.045Z,92.97
2018-06-16T02:47:59.141Z,93.64
2018-06-16T02:48:59.236Z,93.16
2018-06-16T02:49:59.332Z,93.30
2018-06-16T02:50:59.429Z,92.54
2018-06-16T02:51:59.526Z,92.78
2018-06-16T02:52:59.628Z,92.83
2018-06-16T02:53:59.720Z,92.44
2018-06-16T02:54:59.820Z,92.16
2018-06-16T02:55:59.916Z,92.06
2018-06-16T02:57:00.010Z,91.49
2018-06-16T02:58:00.104Z,91.83
2018-06-16T02:59:00.199Z,92.49
2018-06-16T03:00:00.300Z,92.59
2018-06-16T03:01:00.397Z,94.36
2018-06-16T03:02:00.498Z,94.55
2018-06-16T03:03:00.591Z,95.12
2018-06-16T03:04:00.689Z,94.84
2018-06-16T03:05:00.784Z,94.93
2018-06-16T03:06:00.884Z,94.93
2018-06-16T03:07:00.980Z,94.46
2018-06-16T03:08:01.080Z,94.26
2018-06-16T03:09:01.178Z,94.02
2018-06-16T03:10:01.275Z,94.17
2018-06-16T03:11:01.380Z,93.84
2018-06-16T03:12:01.477Z,93.69
2018-06-16T03:13:01.568Z,92.97
2018-06-16T03:14:01.663Z,93.16
2018-06-16T03:15:01.785Z,93.16
2018-06-16T03:16:01.853Z,93.26
2018-06-16T03:17:01.943Z,92.59
2018-06-16T03:18:02.036Z,92.69
2018-06-16T03:19:02.131Z,92.69
2018-06-16T03:20:02.230Z,92.30
2018-06-16T03:21:02.325Z,92.21
2018-06-16T03:22:02.426Z,91.92
2018-06-16T03:23:02.522Z,91.92
2018-06-16T03:24:02.619Z,92.02
2018-06-16T03:25:02.716Z,91.44
2018-06-16T03:26:02.813Z,91.92
2018-06-16T03:27:02.911Z,91.63
2018-06-16T03:28:03.009Z,91.35
2018-06-16T03:29:03.106Z,91.06
2018-06-16T03:30:03.203Z,91.35
2018-06-16T03:31:03.332Z,91.35
2018-06-16T03:32:03.395Z,91.06
2018-06-16T03:33:03.494Z,90.96
2018-06-16T03:34:03.589Z,90.96
2018-06-16T03:35:03.686Z,91.25
2018-06-16T03:36:03.785Z,90.67
2018-06-16T03:37:03.872Z,90.77
2018-06-16T03:38:03.969Z,91.25
2018-06-16T03:39:04.067Z,90.58
2018-06-16T03:40:04.165Z,90.48
2018-06-16T03:41:04.263Z,91.06
2018-06-16T03:42:04.359Z,90.87
2018-06-16T03:43:04.454Z,90.96
2018-06-16T03:44:04.552Z,91.68
2018-06-16T03:45:04.650Z,92.74
2018-06-16T03:46:04.746Z,93.40
2018-06-16T03:47:04.839Z,93.40
2018-06-16T03:48:04.937Z,93.79
2018-06-16T03:49:05.035Z,93.79
2018-06-16T03:50:05.133Z,93.60
2018-06-16T03:51:05.231Z,93.79
2018-06-16T03:52:05.328Z,94.17
2018-06-16T03:53:05.429Z,94.26
2018-06-16T03:54:05.526Z,94.55
2018-06-16T03:55:05.622Z,93.79
2018-06-16T03:56:05.720Z,93.50
2018-06-16T03:57:05.815Z,93.21
2018-06-16T03:58:05.912Z,93.21
2018-06-16T03:59:06.009Z,93.31
2018-06-16T04:00:06.106Z,93.31
2018-06-16T04:01:06.202Z,93.02
2018-06-16T04:02:06.298Z,93.31
2018-06-16T04:03:06.398Z,93.50
2018-06-16T04:04:06.491Z,93.21
2018-06-16T04:05:06.587Z,93.21
2018-06-16T04:06:06.690Z,92.64
2018-06-16T04:07:06.782Z,92.16
2018-06-16T04:08:06.880Z,92.16
2018-06-16T04:09:06.979Z,92.21
2018-06-16T04:10:07.094Z,92.11
2018-06-16T04:11:07.191Z,92.21
2018-06-16T04:12:07.287Z,92.02
2018-06-16T04:13:07.385Z,91.73
2018-06-16T04:14:07.483Z,91.73
2018-06-16T04:15:07.577Z,91.44
2018-06-16T04:16:07.676Z,91.16
2018-06-16T04:17:07.772Z,91.35
2018-06-16T04:18:07.870Z,90.96
2018-06-16T04:19:07.966Z,91.35
2018-06-16T04:20:08.063Z,90.48
2018-06-16T04:21:08.161Z,90.67
2018-06-16T04:22:08.260Z,90.96
2018-06-16T04:23:08.353Z,91.06
2018-06-16T04:24:08.452Z,91.25
2018-06-16T04:25:08.548Z,91.25
2018-06-16T04:26:08.642Z,91.53
2018-06-16T04:27:08.737Z,91.16
2018-06-16T04:28:08.835Z,91.44
2018-06-16T04:29:08.934Z,91.06
2018-06-16T04:30:09.029Z,90.48
2018-06-16T04:31:09.127Z,91.16
2018-06-16T04:32:09.222Z,90.67
2018-06-16T04:33:09.322Z,90.77
2018-06-16T04:34:09.412Z,90.77
2018-06-16T04:35:09.532Z,90.67
2018-06-16T04:36:09.605Z,90.87
2018-06-16T04:37:09.701Z,90.67
2018-06-16T04:38:09.800Z,91.16
2018-06-16T04:39:09.898Z,92.45
2018-06-16T04:40:09.993Z,93.31
2018-06-16T04:41:10.097Z,93.69
2018-06-16T04:42:10.199Z,94.26
2018-06-16T04:43:10.294Z,95.12
2018-06-16T04:44:10.387Z,94.89
2018-06-16T04:45:10.482Z,95.51
2018-06-16T04:46:10.578Z,95.46
2018-06-16T04:47:10.676Z,95.07
2018-06-16T04:48:10.772Z,95.07
2018-06-16T04:49:10.872Z,95.32
2018-06-16T04:50:10.968Z,95.41
2018-06-16T04:51:11.066Z,95.32
2018-06-16T04:52:11.166Z,95.70
2018-06-16T04:53:11.264Z,95.89
2018-06-16T04:54:11.360Z,95.79
2018-06-16T04:55:11.456Z,95.22
2018-06-16T04:56:11.552Z,95.32
2018-06-16T04:57:11.649Z,95.22
2018-06-16T04:58:11.746Z,95.51
2018-06-16T04:59:11.846Z,95.32
2018-06-16T05:00:11.941Z,95.32
2018-06-16T05:01:12.039Z,95.51
2018-06-16T05:02:12.131Z,95.89
2018-06-16T05:03:12.231Z,95.70
2018-06-16T05:04:12.325Z,95.07
2018-06-16T05:05:12.423Z,95.17
2018-06-16T05:06:12.532Z,94.41
2018-06-16T05:07:12.628Z,94.70
2018-06-16T05:08:12.726Z,94.60
2018-06-16T05:09:12.825Z,94.02
2018-06-16T05:10:12.922Z,94.12
2018-06-16T05:11:13.019Z,94.21
2018-06-16T05:12:13.116Z,94.55
2018-06-16T05:13:13.205Z,93.79
2018-06-16T05:14:13.299Z,93.50
2018-06-16T05:15:13.395Z,92.83
2018-06-16T05:16:13.496Z,92.63
2018-06-16T05:17:13.592Z,92.40
2018-06-16T05:18:13.689Z,91.63
2018-06-16T05:19:13.789Z,91.34
2018-06-16T05:20:13.880Z,91.25
2018-06-16T05:21:13.974Z,91.19
2018-06-16T05:22:14.064Z,90.81
2018-06-16T05:23:14.171Z,90.00
2018-06-16T05:24:15.117Z,89.61
2018-06-16T05:25:14.406Z,88.75
2018-06-16T05:26:14.563Z,87.98
2018-06-16T05:27:14.562Z,87.55
2018-06-16T05:28:14.679Z,86.78
2018-06-16T05:29:14.777Z,86.49
2018-06-16T05:30:14.901Z,86.34
2018-06-16T05:31:14.999Z,85.86
2018-06-16T05:32:15.089Z,85.91
2018-06-16T05:33:15.185Z,83.74
2018-06-16T05:34:15.425Z,82.19
2018-06-16T05:35:15.546Z,78.86
2018-06-16T05:36:15.511Z,76.40
2018-06-16T05:37:15.656Z,76.31
2018-06-16T05:38:15.661Z,76.88
2018-06-16T05:39:15.785Z,76.36
2018-06-16T05:40:16.041Z,75.88
2018-06-16T05:41:16.045Z,75.79
2018-06-16T05:42:16.145Z,76.36
2018-06-16T05:43:16.282Z,75.79
2018-06-16T05:44:16.396Z,76.17
2018-06-16T05:45:16.499Z,75.79
2018-06-16T05:46:16.579Z,76.07
2018-06-16T05:47:16.668Z,76.56
2018-06-16T05:48:16.757Z,76.75
2018-06-16T05:49:16.857Z,76.36
2018-06-16T05:50:16.951Z,76.94
2018-06-16T05:51:17.041Z,77.23
2018-06-16T05:52:17.180Z,76.84
2018-06-16T05:53:17.294Z,76.65
2018-06-16T05:54:17.404Z,76.26
2018-06-16T05:55:17.520Z,76.26
2018-06-16T05:56:17.616Z,76.84
2018-06-16T05:57:17.751Z,76.26
2018-06-16T05:58:17.854Z,76.26
2018-06-16T05:59:17.943Z,76.65
2018-06-16T06:00:18.050Z,76.26
2018-06-16T06:01:18.155Z,76.56
2018-06-16T06:02:18.254Z,76.65
2018-06-16T06:03:18.352Z,76.84
2018-06-16T06:04:18.459Z,76.84
2018-06-16T06:05:18.595Z,77.13
2018-06-16T06:06:18.817Z,76.56
2018-06-16T06:07:18.820Z,76.84
2018-06-16T06:08:18.926Z,76.65
2018-06-16T06:09:19.033Z,76.84
2018-06-16T06:10:19.208Z,77.42
2018-06-16T06:11:19.289Z,77.61
2018-06-16T06:12:19.431Z,77.61
2018-06-16T06:13:19.558Z,77.61
2018-06-16T06:14:19.655Z,77.42
2018-06-16T06:15:19.751Z,77.56
2018-06-16T06:16:19.866Z,77.75
2018-06-16T06:17:19.994Z,77.75
2018-06-16T06:18:20.121Z,77.75
2018-06-16T06:19:20.210Z,77.65
2018-06-16T06:20:20.308Z,76.69
2018-06-16T06:21:20.446Z,76.78
2018-06-16T06:22:20.548Z,76.88
2018-06-16T06:23:20.656Z,77.08
2018-06-16T06:24:20.746Z,76.82
2018-06-16T06:25:20.832Z,76.63
2018-06-16T06:26:20.918Z,76.82
2018-06-16T06:27:21.053Z,76.53
2018-06-16T06:28:21.157Z,76.92
2018-06-16T06:29:21.262Z,77.06
2018-06-16T06:30:21.362Z,76.63
2018-06-16T06:31:21.461Z,76.53
2018-06-16T06:32:21.548Z,76.25
2018-06-16T06:33:21.688Z,75.23
2018-06-16T06:34:21.776Z,74.74
2018-06-16T06:35:21.877Z,74.36
2018-06-16T06:36:21.970Z,74.07
2018-06-16T06:37:22.061Z,74.36
2018-06-16T06:38:22.191Z,74.16
2018-06-16T06:39:22.315Z,74.65
2018-06-16T06:40:22.423Z,74.55
2018-06-16T06:41:22.522Z,73.78
2018-06-16T06:42:22.630Z,74.65
2018-06-16T06:43:22.748Z,74.36
2018-06-16T06:44:22.844Z,74.55
2018-06-16T06:45:22.950Z,74.26
2018-06-16T06:46:23.089Z,74.26
2018-06-16T06:47:23.191Z,73.88
2018-06-16T06:48:23.315Z,73.20
2018-06-16T06:49:23.436Z,74.16
2018-06-16T06:50:23.541Z,74.01
2018-06-16T06:51:23.644Z,73.53
2018-06-16T06:52:23.755Z,73.33
2018-06-16T06:53:23.854Z,73.33
2018-06-16T06:54:23.952Z,73.14
2018-06-16T06:55:24.054Z,73.05
2018-06-16T06:56:24.142Z,73.05
2018-06-16T06:57:24.241Z,72.66
2018-06-16T06:58:24.347Z,73.05
2018-06-16T06:59:24.466Z,72.56
2018-06-16T07:00:24.565Z,72.85
2018-06-16T07:01:24.667Z,72.66
2018-06-16T07:02:24.767Z,72.89
2018-06-16T07:03:24.869Z,72.89
2018-06-16T07:04:24.976Z,72.69
2018-06-16T07:05:25.069Z,72.02
2018-06-16T07:06:25.180Z,72.12
2018-06-16T07:07:25.292Z,71.44
2018-06-16T07:08:25.385Z,70.70
2018-06-16T07:09:25.554Z,71.19
2018-06-16T07:10:25.599Z,71.19
2018-06-16T07:11:25.700Z,71.67
2018-06-16T07:12:25.793Z,71.00
2018-06-16T07:13:25.952Z,70.90
2018-06-16T07:14:26.055Z,70.54
2018-06-16T07:15:26.155Z,70.74
2018-06-16T07:16:26.259Z,69.87
2018-06-16T07:17:26.363Z,70.26
2018-06-16T07:18:26.549Z,70.26
2018-06-16T07:19:26.520Z,70.36
2018-06-16T07:20:26.629Z,70.54
2018-06-16T07:21:26.728Z,69.29
2018-06-16T07:22:26.824Z,70.00
2018-06-16T07:23:27.016Z,69.62
2018-06-16T07:24:27.052Z,69.62
2018-06-16T07:25:27.164Z,68.84
2018-06-16T07:26:27.283Z,68.84
2018-06-16T07:27:27.391Z,68.07
2018-06-16T07:28:27.492Z,68.17
2018-06-16T07:29:27.623Z,68.36
2018-06-16T07:30:27.728Z,67.97
2018-06-16T07:31:28.149Z,67.62
2018-06-16T07:32:27.924Z,67.24
2018-06-16T07:33:28.019Z,66.66
2018-06-16T07:34:28.119Z,66.66
2018-06-16T07:35:28.211Z,66.85
2018-06-16T07:36:28.324Z,66.46
2018-06-16T07:37:28.421Z,65.88
2018-06-16T07:38:28.526Z,66.36
2018-06-16T07:39:28.690Z,66.17
2018-06-16T07:40:28.673Z,67.69
2018-06-16T07:41:28.807Z,68.07
2018-06-16T07:42:28.859Z,67.88
2018-06-16T07:43:28.960Z,67.43
2018-06-16T07:44:29.115Z,67.62
2018-06-16T07:45:29.198Z,66.98
2018-06-16T07:46:29.311Z,65.92
2018-06-16T07:47:29.406Z,66.01
2018-06-16T07:48:29.513Z,66.05
2018-06-16T07:49:29.616Z,65.08
2018-06-16T07:50:29.732Z,65.08
2018-06-16T07:51:29.836Z,65.37
2018-06-16T07:52:29.944Z,65.30
2018-06-16T07:53:30.039Z,63.95
2018-06-16T07:54:30.133Z,64.72
2018-06-16T07:55:30.239Z,63.85
2018-06-16T07:56:30.353Z,63.46
2018-06-16T07:57:30.455Z,62.92
2018-06-16T07:58:30.556Z,62.82
2018-06-16T07:59:30.658Z,62.82
2018-06-16T08:00:30.757Z,62.72
2018-06-16T08:01:30.862Z,62.82
2018-06-16T08:02:30.966Z,63.11
2018-06-16T08:03:31.072Z,61.88
2018-06-16T08:04:31.173Z,61.98
2018-06-16T08:05:31.278Z,62.17
2018-06-16T08:06:31.381Z,61.88
2018-06-16T08:07:31.474Z,61.21
2018-06-16T08:08:31.588Z,60.82
2018-06-16T08:09:31.690Z,61.59
2018-06-16T08:10:31.794Z,61.21
2018-06-16T08:11:31.899Z,60.62
2018-06-16T08:12:32.006Z,60.72
2018-06-16T08:13:32.110Z,60.14
2018-06-16T08:14:32.215Z,61.40
2018-06-16T08:15:32.321Z,59.97
2018-06-16T08:16:32.429Z,60.75
2018-06-16T08:17:32.538Z,60.94
2018-06-16T08:18:32.643Z,59.69
2018-06-16T08:19:32.748Z,60.07
2018-06-16T08:20:32.889Z,59.00
2018-06-16T08:21:32.988Z,58.33
2018-06-16T08:22:33.087Z,58.52
2018-06-16T08:23:33.195Z,58.91
2018-06-16T08:24:33.302Z,60.17
2018-06-16T08:25:33.397Z,60.36
2018-06-16T08:26:33.501Z,60.49
2018-06-16T08:27:33.607Z,58.94
2018-06-16T08:28:33.711Z,58.04
2018-06-16T08:29:33.807Z,58.62
2018-06-16T08:30:33.916Z,58.36
2018-06-16T08:31:34.019Z,58.45
2018-06-16T08:32:34.126Z,58.84
2018-06-16T08:33:34.232Z,58.81
2018-06-16T08:34:34.337Z,58.65
2018-06-16T08:35:34.442Z,58.94
2018-06-16T08:36:34.549Z,58.94
2018-06-16T08:37:34.654Z,58.36
2018-06-16T08:38:34.760Z,57.78
2018-06-16T08:39:34.866Z,57.58
2018-06-16T08:40:34.971Z,56.81
2018-06-16T08:41:35.075Z,56.61
2018-06-16T08:42:35.183Z,56.81
2018-06-16T08:43:35.301Z,57.19
2018-06-16T08:44:35.399Z,57.19
2018-06-16T08:45:35.505Z,56.90
2018-06-16T08:46:35.612Z,56.90
2018-06-16T08:47:35.713Z,56.81
2018-06-16T08:48:35.865Z,55.64
2018-06-16T08:49:35.929Z,56.51
2018-06-16T08:50:36.032Z,56.81
2018-06-16T08:51:36.131Z,56.74
2018-06-16T08:52:36.237Z,56.41
2018-06-16T08:53:36.343Z,56.51
2018-06-16T08:54:36.446Z,56.81
2018-06-16T08:55:36.667Z,56.03
2018-06-16T08:56:36.651Z,56.03
2018-06-16T08:57:36.755Z,55.74
2018-06-16T08:58:36.851Z,56.03
2018-06-16T08:59:36.955Z,56.90
2018-06-16T09:00:37.063Z,56.41
2018-06-16T09:01:37.165Z,55.96
2018-06-16T09:02:37.275Z,55.77
2018-06-16T09:03:37.380Z,56.05
2018-06-16T09:04:37.487Z,55.96
2018-06-16T09:05:37.593Z,56.25
2018-06-16T09:06:37.697Z,55.64
2018-06-16T09:07:37.808Z,55.64
2018-06-16T09:08:37.909Z,55.87
2018-06-16T09:09:38.015Z,55.77
2018-06-16T09:10:38.120Z,56.25
2018-06-16T09:11:38.226Z,55.89
2018-06-16T09:12:38.340Z,55.21
2018-06-16T09:13:38.445Z,55.31
2018-06-16T09:14:38.557Z,54.80
2018-06-16T09:15:38.657Z,55.21
2018-06-16T09:16:38.755Z,55.11
2018-06-16T09:17:38.861Z,55.53
2018-06-16T09:18:38.967Z,54.94
2018-06-16T09:19:39.073Z,53.30
2018-06-16T09:20:39.178Z,52.81
2018-06-16T09:21:39.282Z,54.07
2018-06-16T09:22:39.438Z,53.22
2018-06-16T09:23:39.493Z,52.35
2018-06-16T09:24:39.603Z,53.32
2018-06-16T09:25:39.706Z,53.13
2018-06-16T09:26:39.814Z,52.74
2018-06-16T09:27:39.922Z,52.84
2018-06-16T09:28:40.035Z,51.89
2018-06-16T09:29:40.133Z,51.67
2018-06-16T09:30:40.244Z,51.48
2018-06-16T09:31:40.369Z,51.97
2018-06-16T09:32:40.451Z,51.67
2018-06-16T09:33:40.558Z,51.48
2018-06-16T09:34:40.677Z,51.38
2018-06-16T09:35:40.782Z,51.28
2018-06-16T09:36:40.888Z,51.21
2018-06-16T09:37:40.993Z,51.50
2018-06-16T09:38:41.101Z,52.19
2018-06-16T09:39:41.207Z,51.99
2018-06-16T09:40:41.313Z,52.86
2018-06-16T09:41:41.421Z,52.45
2018-06-16T09:42:41.519Z,52.72
2018-06-16T09:43:41.622Z,51.84
2018-06-16T09:44:41.727Z,52.94
2018-06-16T09:45:41.839Z,51.97
2018-06-16T09:46:41.942Z,51.97
2018-06-16T09:47:42.048Z,52.06
2018-06-16T09:48:42.157Z,51.09
2018-06-16T09:49:42.261Z,51.28
2018-06-16T09:50:42.366Z,51.31
2018-06-16T09:51:42.475Z,51.21
2018-06-16T09:52:42.583Z,50.04
2018-06-16T09:53:42.691Z,50.24
2018-06-16T09:54:42.796Z,49.95
2018-06-16T09:55:42.902Z,50.14
2018-06-16T09:56:43.008Z,49.10
2018-06-16T09:57:43.115Z,48.90
2018-06-16T09:58:43.221Z,48.32
2018-06-16T09:59:43.328Z,49.97
2018-06-16T10:00:43.435Z,48.90
2018-06-16T10:01:43.539Z,48.51
2018-06-16T10:02:43.649Z,48.80
2018-06-16T10:03:43.754Z,49.00
2018-06-16T10:04:43.852Z,48.13
2018-06-16T10:05:43.957Z,48.80
2018-06-16T10:06:44.068Z,48.93
2018-06-16T10:07:44.184Z,48.54
2018-06-16T10:08:44.292Z,47.93
2018-06-16T10:09:44.394Z,48.97
2018-06-16T10:10:44.518Z,48.80
2018-06-16T10:11:44.641Z,48.90
2018-06-16T10:12:44.755Z,46.25
2018-06-16T10:13:44.844Z,44.24
2018-06-16T10:14:44.984Z,44.72
2018-06-16T10:15:45.084Z,45.89
2018-06-16T10:16:45.198Z,46.57
2018-06-16T10:17:45.306Z,47.08
2018-06-16T10:18:45.422Z,46.98
2018-06-16T10:19:45.516Z,46.69
2018-06-16T10:20:45.617Z,48.44
2018-06-16T10:21:45.721Z,48.44
2018-06-16T10:22:45.878Z,47.27
2018-06-16T10:23:46.140Z,43.26
2018-06-16T10:24:46.133Z,40.73
2018-06-16T10:25:46.236Z,41.03
2018-06-16T10:26:46.352Z,42.00
2018-06-16T10:27:46.508Z,42.78
2018-06-16T10:28:46.620Z,43.85
2018-06-16T10:29:46.719Z,41.34
2018-06-16T10:30:46.887Z,40.66
2018-06-16T10:31:46.990Z,40.85
2018-06-16T10:32:47.116Z,38.52
2018-06-16T10:33:47.227Z,38.42
2018-06-16T10:34:47.342Z,38.62
2018-06-16T10:35:47.461Z,40.17
2018-06-16T10:36:47.593Z,41.34
2018-06-16T10:37:47.688Z,40.66
2018-06-16T10:38:47.795Z,41.05
2018-06-16T10:39:47.904Z,42.80
2018-06-16T10:40:48.014Z,43.38
2018-06-16T10:41:48.132Z,42.50
2018-06-16T10:42:48.234Z,42.60
2018-06-16T10:43:48.356Z,42.58
2018-06-16T10:44:48.486Z,42.11
2018-06-16T10:45:48.592Z,41.63
2018-06-16T10:46:48.704Z,42.60
2018-06-16T10:47:48.807Z,42.99
2018-06-16T10:48:48.908Z,42.41
2018-06-16T10:49:49.012Z,41.46
2018-06-16T10:50:49.106Z,40.68
2018-06-16T10:51:49.197Z,41.85
2018-06-16T10:52:49.327Z,41.55
2018-06-16T10:53:49.464Z,43.21
2018-06-16T10:54:49.559Z,42.84
2018-06-16T10:55:49.661Z,42.94
2018-06-16T10:56:49.760Z,41.67
2018-06-16T10:57:49.876Z,41.86
2018-06-16T10:58:50.045Z,41.38
2018-06-16T10:59:50.181Z,39.34
2018-06-16T11:00:50.307Z,40.41
2018-06-16T11:01:50.415Z,40.11
2018-06-16T11:02:50.519Z,40.41
2018-06-16T11:03:50.629Z,40.70
2018-06-16T11:04:50.737Z,42.74
2018-06-16T11:05:50.839Z,41.38
2018-06-16T11:06:50.950Z,40.41
2018-06-16T11:07:51.050Z,39.62
2018-06-16T11:08:51.167Z,38.85
2018-06-16T11:09:51.279Z,37.87
2018-06-16T11:10:51.392Z,37.02
2018-06-16T11:11:51.491Z,37.87
2018-06-16T11:12:51.598Z,39.84
2018-06-16T11:13:51.708Z,38.67
2018-06-16T11:14:51.816Z,36.92
2018-06-16T11:15:51.929Z,37.79
2018-06-16T11:16:52.046Z,36.51
2018-06-16T11:17:52.152Z,37.89
2018-06-16T11:18:52.257Z,37.31
2018-06-16T11:19:52.385Z,37.50
2018-06-16T11:20:52.490Z,37.79
2018-06-16T11:21:52.600Z,37.70
2018-06-16T11:22:52.697Z,38.89
2018-06-16T11:23:52.789Z,38.49
2018-06-16T11:24:52.892Z,39.86
2018-06-16T11:25:53.010Z,39.08
2018-06-16T11:26:53.105Z,38.40
2018-06-16T11:27:53.213Z,39.26
2018-06-16T11:28:53.318Z,38.87
2018-06-16T11:29:53.425Z,38.77
2018-06-16T11:30:53.530Z,38.30
2018-06-16T11:31:53.628Z,38.49
2018-06-16T11:32:53.740Z,38.89
2018-06-16T11:33:53.844Z,39.76
2018-06-16T11:34:53.949Z,38.18
2018-06-16T11:35:54.048Z,38.79
2018-06-16T11:36:54.158Z,38.30
2018-06-16T11:37:54.271Z,38.49
2018-06-16T11:38:54.370Z,38.02
2018-06-16T11:39:54.477Z,38.30
2018-06-16T11:40:54.639Z,37.73
2018-06-16T11:41:54.680Z,35.59
2018-06-16T11:42:54.793Z,35.69
2018-06-16T11:43:54.945Z,35.69
2018-06-16T11:44:55.054Z,35.98
2018-06-16T11:45:55.188Z,38.01
2018-06-16T11:46:55.297Z,36.74
2018-06-16T11:47:55.395Z,36.16
2018-06-16T11:48:55.503Z,35.47
2018-06-16T11:49:55.613Z,35.49
2018-06-16T11:50:55.709Z,35.00
2018-06-16T11:51:55.815Z,35.49
2018-06-16T11:52:55.922Z,35.59
2018-06-16T11:53:56.032Z,35.49
2018-06-16T11:54:56.127Z,35.69
2018-06-16T11:55:56.233Z,35.77
2018-06-16T11:56:56.353Z,35.78
2018-06-16T11:57:56.453Z,35.78
2018-06-16T11:58:56.554Z,35.31
2018-06-16T11:59:56.661Z,35.51
2018-06-16T12:00:56.773Z,35.61
2018-06-16T12:01:56.933Z,35.67
2018-06-16T12:02:57.008Z,36.57
2018-06-16T12:03:57.117Z,36.96
2018-06-16T12:04:57.222Z,36.08
2018-06-16T12:05:57.330Z,36.16
2018-06-16T12:06:57.440Z,36.65
2018-06-16T12:07:57.546Z,36.57
2018-06-16T12:08:57.652Z,35.86
2018-06-16T12:09:57.767Z,36.35
2018-06-16T12:10:57.875Z,37.43
2018-06-16T12:11:57.981Z,37.91
2018-06-16T12:12:58.089Z,36.74
2018-06-16T12:13:58.198Z,36.18
2018-06-16T12:14:58.307Z,35.86
2018-06-16T12:15:58.416Z,36.84
2018-06-16T12:16:58.525Z,37.54
2018-06-16T12:17:58.633Z,36.96
2018-06-16T12:18:58.739Z,36.76
2018-06-16T12:19:58.848Z,36.96
2018-06-16T12:20:58.974Z,36.55
2018-06-16T12:21:59.084Z,36.82
2018-06-16T12:22:59.193Z,37.68
2018-06-16T12:23:59.303Z,37.97
2018-06-16T12:24:59.412Z,37.77
2018-06-16T12:25:59.519Z,38.09
2018-06-16T12:26:59.627Z,38.20
2018-06-16T12:27:59.738Z,37.91
2018-06-16T12:28:59.842Z,37.63
2018-06-16T12:29:59.952Z,36.96
2018-06-16T12:31:00.062Z,36.96
2018-06-16T12:32:00.169Z,37.07
2018-06-16T12:33:00.280Z,35.61
2018-06-16T12:34:00.386Z,35.31
2018-06-16T12:35:00.494Z,35.80
2018-06-16T12:36:00.603Z,35.80
2018-06-16T12:37:00.713Z,36.00
2018-06-16T12:38:00.823Z,35.80
2018-06-16T12:39:00.929Z,35.61
2018-06-16T12:40:01.035Z,34.92
2018-06-16T12:41:01.144Z,34.75
2018-06-16T12:42:01.253Z,34.53
2018-06-16T12:43:01.366Z,35.02
2018-06-16T12:44:01.475Z,35.22
2018-06-16T12:45:01.582Z,35.41
2018-06-16T12:46:01.692Z,35.71
2018-06-16T12:47:01.805Z,36.29
2018-06-16T12:48:01.914Z,36.29
2018-06-16T12:49:02.023Z,36.29
2018-06-16T12:50:02.138Z,36.78
2018-06-16T12:51:02.238Z,36.29
2018-06-16T12:52:02.346Z,35.61
2018-06-16T12:53:02.459Z,36.88
2018-06-16T12:54:02.563Z,36.00